createdAt,value
2017-12-29T00:01:20.374Z,99812
2017-12-29T00:43:25.799Z,99847
2017-12-29T00:45:55.847Z,99846
2017-12-29T00:48:29.141Z,99850
2017-12-29T00:51:00.203Z,99856
2017-12-29T02:37:25.310Z,99925
2017-12-29T02:42:51.553Z,99921
2017-12-29T02:45:27.906Z,99908
2017-12-29T02:48:23.905Z,99921
2017-12-29T02:51:02.258Z,99924
2017-12-29T02:53:40.533Z,99916
2017-12-29T02:56:14.665Z,99921
2017-12-29T02:58:48.513Z,99925
2017-12-29T03:01:16.974Z,99920
2017-12-29T03:03:57.904Z,99932
2017-12-29T03:06:28.240Z,99929
2017-12-29T03:09:05.262Z,99931
2017-12-29T03:11:37.139Z,99940
2017-12-29T03:14:12.188Z,99934
2017-12-29T03:16:57.846Z,99932
2017-12-29T03:19:28.993Z,99932
2017-12-29T03:24:40.348Z,99938
2017-12-29T03:27:08.965Z,99941
2017-12-29T03:29:41.342Z,99944
2017-12-29T03:32:09.793Z,99948
2017-12-29T03:41:01.252Z,99949
2017-12-29T03:43:30.649Z,99953
2017-12-29T03:46:10.481Z,99958
2017-12-29T03:48:43.446Z,99969
2017-12-29T03:51:14.328Z,99960
2017-12-29T03:53:43.029Z,99964
2017-12-29T03:56:12.154Z,99952
2017-12-29T03:58:40.578Z,99958
2017-12-29T04:01:09.026Z,99967
2017-12-29T04:03:37.611Z,99973
2017-12-29T04:06:06.118Z,99964
2017-12-29T04:08:34.685Z,99963
2017-12-29T04:11:05.130Z,99959
2017-12-29T04:13:33.628Z,99972
2017-12-29T04:16:03.193Z,99972
2017-12-29T04:18:35.911Z,99971
2017-12-29T04:21:07.234Z,99972
2017-12-29T04:23:36.463Z,99979
2017-12-29T04:26:04.890Z,99968
2017-12-29T04:28:33.265Z,99981
2017-12-29T04:31:01.715Z,99992
2017-12-29T04:33:31.441Z,99981
2017-12-29T04:36:03.590Z,99987
2017-12-29T04:38:32.018Z,99984
2017-12-29T04:41:00.332Z,99986
2017-12-29T04:43:29.471Z,99978
2017-12-29T04:45:57.743Z,99982
2017-12-29T04:48:25.926Z,99973
2017-12-29T04:50:54.242Z,99981
2017-12-29T04:53:23.392Z,99995
2017-12-29T04:55:52.442Z,99983
2017-12-29T04:58:21.465Z,99996
2017-12-29T05:00:49.701Z,99986
2017-12-29T05:03:18.713Z,99990
2017-12-29T05:05:46.994Z,99993
2017-12-29T05:08:15.547Z,99998
2017-12-29T05:10:44.051Z,100006
2017-12-29T05:13:12.275Z,100007
2017-12-29T05:15:40.549Z,100011
2017-12-29T05:18:08.815Z,100015
2017-12-29T05:20:37.067Z,100013
2017-12-29T05:23:05.291Z,100024
2017-12-29T05:25:33.537Z,100028
2017-12-29T05:28:01.786Z,100030
2017-12-29T05:30:30.021Z,100023
2017-12-29T05:32:58.260Z,100020
2017-12-29T05:35:26.677Z,100032
2017-12-29T05:37:54.928Z,100034
2017-12-29T05:40:23.555Z,100038
2017-12-29T05:42:52.550Z,100041
2017-12-29T05:45:20.817Z,100036
2017-12-29T05:47:49.084Z,100028
2017-12-29T05:50:18.078Z,100027
2017-12-29T05:52:47.066Z,100035
2017-12-29T05:55:16.058Z,100039
2017-12-29T05:57:45.193Z,100038
2017-12-29T06:00:13.418Z,100042
2017-12-29T06:02:41.638Z,100048
2017-12-29T06:05:09.871Z,100050
2017-12-29T06:07:38.097Z,100059
2017-12-29T06:10:06.362Z,100062
2017-12-29T06:12:34.604Z,100062
2017-12-29T06:15:03.613Z,100065
2017-12-29T06:17:31.921Z,100068
2017-12-29T06:20:00.210Z,100073
2017-12-29T06:22:28.459Z,100076
2017-12-29T06:24:56.710Z,100084
2017-12-29T06:27:25.832Z,100082
2017-12-29T06:29:54.159Z,100082
2017-12-29T06:32:23.270Z,100082
2017-12-29T06:34:52.264Z,100080
2017-12-29T06:37:21.307Z,100093
2017-12-29T06:39:49.717Z,100097
2017-12-29T06:42:17.944Z,100106
2017-12-29T06:44:46.182Z,100096
2017-12-29T06:47:15.223Z,100098
2017-12-29T06:49:43.497Z,100099
2017-12-29T06:52:11.716Z,100099
2017-12-29T06:54:40.715Z,100106
2017-12-29T06:57:09.777Z,100112
2017-12-29T06:59:38.067Z,100117
2017-12-29T07:02:06.287Z,100111
2017-12-29T07:04:34.575Z,100111
2017-12-29T07:07:02.845Z,100127
2017-12-29T07:09:31.111Z,100127
2017-12-29T07:11:59.330Z,100130
2017-12-29T07:14:27.584Z,100134
2017-12-29T07:16:55.808Z,100136
2017-12-29T07:19:24.822Z,100131
2017-12-29T07:21:53.045Z,100142
2017-12-29T07:24:21.275Z,100140
2017-12-29T07:26:49.554Z,100145
2017-12-29T07:29:18.551Z,100146
2017-12-29T07:31:46.943Z,100147
2017-12-29T07:34:15.201Z,100157
2017-12-29T07:36:43.448Z,100157
2017-12-29T07:39:12.445Z,100161
2017-12-29T07:41:40.651Z,100171
2017-12-29T07:44:09.066Z,100171
2017-12-29T07:46:37.302Z,100173
2017-12-29T07:49:05.570Z,100174
2017-12-29T07:51:33.818Z,100183
2017-12-29T07:54:02.116Z,100192
2017-12-29T07:56:30.346Z,100182
2017-12-29T07:58:58.615Z,100186
2017-12-29T08:01:26.937Z,100207
2017-12-29T08:03:55.255Z,100196
2017-12-29T08:06:23.542Z,100205
2017-12-29T08:08:51.780Z,100204
2017-12-29T08:11:20.015Z,100209
2017-12-29T08:13:49.114Z,100210
2017-12-29T08:16:17.353Z,100206
2017-12-29T08:18:45.575Z,100212
2017-12-29T08:21:13.835Z,100215
2017-12-29T08:23:42.116Z,100217
2017-12-29T08:26:10.379Z,100212
2017-12-29T08:28:39.410Z,100217
2017-12-29T08:31:07.626Z,100214
2017-12-29T08:33:35.859Z,100210
2017-12-29T08:36:04.104Z,100214
2017-12-29T08:38:33.080Z,100216
2017-12-29T08:41:02.084Z,100211
2017-12-29T08:43:30.367Z,100225
2017-12-29T08:45:58.596Z,100227
2017-12-29T08:48:26.815Z,100230
2017-12-29T08:50:55.150Z,100227
2017-12-29T08:53:23.389Z,100239
2017-12-29T08:55:52.189Z,100235
2017-12-29T08:58:20.469Z,100235
2017-12-29T09:00:48.693Z,100231
2017-12-29T09:03:17.673Z,100218
2017-12-29T09:05:46.829Z,100225
2017-12-29T09:08:15.130Z,100226
2017-12-29T09:10:43.386Z,100227
2017-12-29T09:13:11.664Z,100225
2017-12-29T09:15:39.901Z,100221
2017-12-29T09:18:08.203Z,100227
2017-12-29T09:20:36.772Z,100229
2017-12-29T09:23:05.026Z,100225
2017-12-29T09:25:33.239Z,100223
2017-12-29T09:28:01.462Z,100226
2017-12-29T09:30:30.442Z,100228
2017-12-29T09:32:59.479Z,100227
2017-12-29T09:35:27.707Z,100232
2017-12-29T09:37:55.926Z,100229
2017-12-29T09:40:24.233Z,100230
2017-12-29T09:42:52.566Z,100241
2017-12-29T09:45:20.930Z,100224
2017-12-29T09:47:50.333Z,100224
2017-12-29T09:50:18.593Z,100225
2017-12-29T09:52:47.602Z,100218
2017-12-29T09:55:15.824Z,100215
2017-12-29T09:57:44.043Z,100220
2017-12-29T10:00:13.039Z,100212
2017-12-29T10:02:41.241Z,100218
2017-12-29T10:05:09.469Z,100221
2017-12-29T10:07:38.513Z,100217
2017-12-29T10:10:06.748Z,100212
2017-12-29T10:12:35.745Z,100226
2017-12-29T10:15:03.968Z,100228
2017-12-29T10:17:32.197Z,100218
2017-12-29T10:20:00.421Z,100210
2017-12-29T10:22:28.744Z,100210
2017-12-29T10:24:57.755Z,100215
2017-12-29T10:27:26.101Z,100205
2017-12-29T10:29:55.102Z,100211
2017-12-29T10:32:24.105Z,100206
2017-12-29T10:34:52.318Z,100211
2017-12-29T10:37:20.556Z,100208
2017-12-29T10:39:48.861Z,100201
2017-12-29T10:42:17.097Z,100210
2017-12-29T10:44:45.327Z,100206
2017-12-29T10:47:13.586Z,100206
2017-12-29T10:49:41.837Z,100208
2017-12-29T10:52:10.040Z,100202
2017-12-29T10:54:38.391Z,100219
2017-12-29T10:57:06.644Z,100219
2017-12-29T10:59:35.626Z,100210
2017-12-29T11:02:04.643Z,100206
2017-12-29T11:04:32.853Z,100206
2017-12-29T11:07:01.127Z,100213
2017-12-29T11:09:29.380Z,100209
2017-12-29T11:11:57.592Z,100206
2017-12-29T11:14:25.861Z,100208
2017-12-29T11:16:54.127Z,100205
2017-12-29T11:19:22.372Z,100209
2017-12-29T11:21:50.761Z,100194
2017-12-29T11:24:19.436Z,100197
2017-12-29T11:26:48.514Z,100201
2017-12-29T11:29:16.738Z,100189
2017-12-29T11:31:44.985Z,100195
2017-12-29T11:34:13.241Z,100188
2017-12-29T11:36:41.495Z,100197
2017-12-29T11:39:10.561Z,100182
2017-12-29T11:41:38.800Z,100187
2017-12-29T11:44:07.008Z,100177
2017-12-29T11:46:35.235Z,100173
2017-12-29T11:49:03.482Z,100183
2017-12-29T11:51:32.544Z,100192
2017-12-29T11:54:00.812Z,100192
2017-12-29T11:56:29.025Z,100187
2017-12-29T11:58:58.039Z,100166
2017-12-29T12:01:26.310Z,100165
2017-12-29T12:03:54.867Z,100167
2017-12-29T12:06:23.285Z,100168
2017-12-29T12:08:51.550Z,100169
2017-12-29T12:11:20.590Z,100167
2017-12-29T12:13:49.439Z,100162
2017-12-29T12:16:17.670Z,100168
2017-12-29T12:18:45.897Z,100157
2017-12-29T12:21:15.154Z,100160
2017-12-29T12:23:43.720Z,100161
2017-12-29T12:26:11.962Z,100152
2017-12-29T12:28:40.190Z,100151
2017-12-29T12:31:08.527Z,100154
2017-12-29T12:33:36.750Z,100157
2017-12-29T12:36:05.770Z,100156
2017-12-29T12:38:34.036Z,100159
2017-12-29T12:41:02.309Z,100148
2017-12-29T12:43:30.510Z,100148
2017-12-29T12:45:58.729Z,100148
2017-12-29T12:48:27.047Z,100143
2017-12-29T12:50:55.261Z,100145
2017-12-29T12:53:23.599Z,100140
2017-12-29T12:55:51.991Z,100136
2017-12-29T12:58:20.241Z,100136
2017-12-29T13:00:48.483Z,100135
2017-12-29T13:03:17.525Z,100133
2017-12-29T13:05:45.797Z,100130
2017-12-29T13:08:14.810Z,100139
2017-12-29T13:10:43.058Z,100121
2017-12-29T13:13:11.448Z,100123
2017-12-29T13:15:40.536Z,100111
2017-12-29T13:18:08.796Z,100113
2017-12-29T13:20:37.064Z,100112
2017-12-29T13:23:05.375Z,100106
2017-12-29T13:25:33.685Z,100109
2017-12-29T13:28:01.967Z,100113
2017-12-29T13:30:31.031Z,100106
2017-12-29T13:32:59.263Z,100106
2017-12-29T13:35:27.675Z,100115
2017-12-29T13:37:55.976Z,100125
2017-12-29T13:40:24.211Z,100115
2017-12-29T13:42:52.539Z,100118
2017-12-29T13:45:20.900Z,100114
2017-12-29T13:47:49.180Z,100122
2017-12-29T13:50:17.558Z,100117
2017-12-29T13:52:45.956Z,100106
2017-12-29T13:55:15.134Z,100112
2017-12-29T13:57:44.505Z,100110
2017-12-29T14:00:12.935Z,100112
2017-12-29T14:02:41.368Z,100108
2017-12-29T14:05:10.699Z,100110
2017-12-29T14:07:39.897Z,100111
2017-12-29T14:10:08.339Z,100105
2017-12-29T14:12:38.689Z,100103
2017-12-29T14:15:07.246Z,100108
2017-12-29T14:17:35.737Z,100101
2017-12-29T14:20:04.857Z,100110
2017-12-29T14:22:34.113Z,100108
2017-12-29T14:25:02.614Z,100101
2017-12-29T14:27:31.040Z,100111
2017-12-29T14:29:59.532Z,100108
2017-12-29T14:32:29.590Z,100103
2017-12-29T14:37:37.163Z,100102
2017-12-29T14:40:06.581Z,100095
2017-12-29T14:42:35.063Z,100090
2017-12-29T14:45:03.389Z,100075
2017-12-29T14:47:31.837Z,100088
2017-12-29T14:50:00.986Z,100074
2017-12-29T14:52:29.442Z,100073
2017-12-29T14:54:57.843Z,100068
2017-12-29T14:57:26.162Z,100053
2017-12-29T14:59:55.154Z,100059
2017-12-29T15:05:08.969Z,100050
2017-12-29T15:07:37.286Z,100050
2017-12-29T15:10:05.656Z,100047
2017-12-29T15:12:33.999Z,100047
2017-12-29T15:15:02.388Z,100047
2017-12-29T15:17:30.672Z,100042
2017-12-29T15:19:59.072Z,100026
2017-12-29T15:22:27.428Z,100030
2017-12-29T15:24:56.438Z,100019
2017-12-29T15:27:25.596Z,100015
2017-12-29T15:29:54.835Z,100007
2017-12-29T15:32:23.087Z,100016
2017-12-29T15:34:51.392Z,100002
2017-12-29T15:37:19.869Z,99998
2017-12-29T15:39:49.222Z,100002
2017-12-29T15:42:17.560Z,99997
2017-12-29T15:44:45.860Z,99995
2017-12-29T15:47:15.837Z,99984
2017-12-29T15:49:44.339Z,99987
2017-12-29T15:52:12.733Z,99981
2017-12-29T15:57:50.563Z,99981
2017-12-29T16:00:18.895Z,99975
2017-12-29T16:02:49.008Z,99975
2017-12-29T16:05:26.132Z,99974
2017-12-29T16:07:59.687Z,99972
2017-12-29T16:10:28.404Z,99976
2017-12-29T16:13:05.388Z,99968
2017-12-29T16:15:34.751Z,99966
2017-12-29T16:18:03.122Z,99966
2017-12-29T16:20:31.970Z,99964
2017-12-29T16:23:00.233Z,99955
2017-12-29T16:25:29.238Z,99956
2017-12-29T16:27:58.374Z,99943
2017-12-29T16:30:26.583Z,99947
2017-12-29T16:32:55.606Z,99945
2017-12-29T16:35:23.880Z,99951
2017-12-29T16:37:52.091Z,99936
2017-12-29T16:40:20.331Z,99934
2017-12-29T16:42:48.552Z,99937
2017-12-29T16:45:16.819Z,99941
2017-12-29T16:47:45.029Z,99936
2017-12-29T16:50:14.029Z,99946
2017-12-29T16:52:42.305Z,99954
2017-12-29T16:55:10.651Z,99954
2017-12-29T16:57:38.978Z,99932
2017-12-29T17:00:07.225Z,99932
2017-12-29T17:02:35.482Z,99936
2017-12-29T17:05:03.700Z,99938
2017-12-29T17:07:31.956Z,99929
2017-12-29T17:10:00.248Z,99930
2017-12-29T17:12:28.473Z,99930
2017-12-29T17:14:57.523Z,99919
2017-12-29T17:17:25.747Z,99919
2017-12-29T17:19:55.615Z,99912
2017-12-29T17:22:23.856Z,99916
2017-12-29T17:24:52.078Z,99913
2017-12-29T17:27:20.292Z,99911
2017-12-29T17:29:49.300Z,99921
2017-12-29T17:32:17.534Z,99926
2017-12-29T17:34:45.793Z,99926
2017-12-29T17:37:14.023Z,99924
2017-12-29T17:39:42.658Z,99924
2017-12-29T17:42:10.856Z,99919
2017-12-29T17:44:39.878Z,99916
2017-12-29T17:47:09.908Z,99917
2017-12-29T17:49:38.195Z,99918
2017-12-29T17:52:07.282Z,99918
2017-12-29T17:54:35.510Z,99914
2017-12-29T17:57:04.526Z,99917
2017-12-29T17:59:32.763Z,99912
2017-12-29T18:02:00.998Z,99907
2017-12-29T18:04:29.986Z,99899
2017-12-29T18:06:58.218Z,99902
2017-12-29T18:09:27.289Z,99891
2017-12-29T18:11:55.590Z,99901
2017-12-29T18:14:24.662Z,99902
2017-12-29T18:16:52.964Z,99888
2017-12-29T18:19:22.026Z,99887
2017-12-29T18:21:50.273Z,99892
2017-12-29T18:24:19.286Z,99898
2017-12-29T18:26:47.584Z,99893
2017-12-29T18:29:15.815Z,99891
2017-12-29T18:31:44.095Z,99888
2017-12-29T18:34:12.338Z,99883
2017-12-29T18:36:41.341Z,99887
2017-12-29T18:39:09.615Z,99892
2017-12-29T18:41:37.863Z,99889
2017-12-29T18:44:06.980Z,99887
2017-12-29T18:46:35.314Z,99881
2017-12-29T18:49:03.612Z,99884
2017-12-29T18:51:32.625Z,99882
2017-12-29T18:54:00.894Z,99876
2017-12-29T18:56:29.202Z,99884
2017-12-29T18:58:57.502Z,99877
2017-12-29T19:01:25.847Z,99868
2017-12-29T19:03:54.207Z,99865
2017-12-29T19:06:22.442Z,99869
2017-12-29T19:08:50.755Z,99856
2017-12-29T19:11:18.989Z,99860
2017-12-29T19:13:47.214Z,99855
2017-12-29T19:16:15.664Z,99845
2017-12-29T19:18:43.923Z,99851
2017-12-29T19:21:12.212Z,99855
2017-12-29T19:23:41.204Z,99865
2017-12-29T19:26:10.219Z,99851
2017-12-29T19:28:38.481Z,99855
2017-12-29T19:31:06.715Z,99859
2017-12-29T19:33:34.970Z,99861
2017-12-29T19:36:03.198Z,99859
2017-12-29T19:38:32.244Z,99856
2017-12-29T19:41:00.492Z,99850
2017-12-29T19:43:28.796Z,99848
2017-12-29T19:45:57.151Z,99858
2017-12-29T19:48:25.417Z,99860
2017-12-29T19:50:53.866Z,99862
2017-12-29T19:53:22.085Z,99861
2017-12-29T19:55:50.344Z,99857
2017-12-29T19:58:18.656Z,99855
2017-12-29T20:00:46.911Z,99849
2017-12-29T20:03:15.179Z,99849
2017-12-29T20:05:43.424Z,99851
2017-12-29T20:08:12.411Z,99838
2017-12-29T20:10:41.477Z,99850
2017-12-29T20:13:09.708Z,99858
2017-12-29T20:15:37.946Z,99851
2017-12-29T20:18:06.201Z,99856
2017-12-29T20:20:34.449Z,99841
2017-12-29T20:23:02.690Z,99847
2017-12-29T20:25:31.707Z,99854
2017-12-29T20:27:59.967Z,99852
2017-12-29T20:30:28.208Z,99845
2017-12-29T20:32:56.453Z,99839
2017-12-29T20:35:24.666Z,99844
2017-12-29T20:37:53.658Z,99852
2017-12-29T20:40:22.670Z,99853
2017-12-29T20:42:51.656Z,99845
2017-12-29T20:45:20.656Z,99833
2017-12-29T20:47:48.957Z,99836
2017-12-29T20:50:17.983Z,99828
2017-12-29T20:52:46.212Z,99835
2017-12-29T20:55:14.433Z,99831
2017-12-29T20:57:42.645Z,99833
2017-12-29T21:00:11.623Z,99831
2017-12-29T21:02:40.590Z,99819
2017-12-29T21:05:08.813Z,99812
2017-12-29T21:07:37.052Z,99825
2017-12-29T21:10:05.324Z,99828
2017-12-29T21:12:33.550Z,99835
2017-12-29T21:15:01.898Z,99827
2017-12-29T21:17:30.877Z,99818
2017-12-29T21:19:59.117Z,99826
2017-12-29T21:22:27.371Z,99828
2017-12-29T21:24:55.556Z,99827
2017-12-29T21:27:23.865Z,99827
2017-12-29T21:29:52.072Z,99822
2017-12-29T21:32:20.348Z,99828
2017-12-29T21:34:48.621Z,99828
2017-12-29T21:37:16.993Z,99826
2017-12-29T21:39:45.220Z,99827
2017-12-29T21:42:13.505Z,99817
2017-12-29T21:44:41.723Z,99810
2017-12-29T21:47:09.948Z,99819
2017-12-29T21:49:38.216Z,99817
2017-12-29T21:52:06.557Z,99819
2017-12-29T21:54:34.802Z,99810
2017-12-29T21:57:03.803Z,99813
2017-12-29T21:59:32.054Z,99820
2017-12-29T22:02:00.273Z,99823
2017-12-29T22:04:28.499Z,99821
2017-12-29T22:06:56.728Z,99822
2017-12-29T22:09:24.952Z,99818
2017-12-29T22:11:53.231Z,99803
2017-12-29T22:14:21.497Z,99804
2017-12-29T22:16:49.741Z,99809
2017-12-29T22:19:18.007Z,99810
2017-12-29T22:21:46.213Z,99812
2017-12-29T22:24:15.362Z,99811
2017-12-29T22:26:43.797Z,99812
2017-12-29T22:29:12.042Z,99821
2017-12-29T22:31:40.253Z,99810
2017-12-29T22:34:08.503Z,99813
2017-12-29T22:36:39.449Z,99809
2017-12-29T22:39:07.693Z,99817
2017-12-29T22:41:36.018Z,99807
2017-12-29T22:44:04.270Z,99805
2017-12-29T22:46:34.361Z,99808
2017-12-29T22:49:03.515Z,99804
2017-12-29T22:51:32.518Z,99817
2017-12-29T22:54:01.491Z,99806
2017-12-29T22:56:29.844Z,99812
2017-12-29T22:58:58.112Z,99813
2017-12-29T23:01:26.354Z,99802
2017-12-29T23:03:54.595Z,99811
2017-12-29T23:06:23.581Z,99807
2017-12-29T23:08:51.798Z,99807
2017-12-29T23:11:20.020Z,99808
2017-12-29T23:13:48.242Z,99807
2017-12-29T23:16:16.458Z,99809
2017-12-29T23:18:44.666Z,99806
2017-12-29T23:21:13.683Z,99810
2017-12-29T23:23:41.905Z,99794
2017-12-29T23:26:10.127Z,99788
2017-12-29T23:28:38.346Z,99801
2017-12-29T23:31:06.543Z,99800
2017-12-29T23:33:34.763Z,99800
2017-12-29T23:36:02.983Z,99792
2017-12-29T23:38:31.232Z,99801
2017-12-29T23:40:59.457Z,99802
2017-12-29T23:43:28.515Z,99801
2017-12-29T23:45:56.770Z,99796
2017-12-29T23:48:25.000Z,99793
2017-12-29T23:50:53.228Z,99800
2017-12-29T23:53:21.450Z,99796
2017-12-29T23:55:50.476Z,99797
2017-12-29T23:58:18.682Z,99794
